Time;durP1;ratioP1;P1;durP2;ratioP2;P2;SDS_P1;SDS_P2;PMS_P1;PMS_P2;Temp;Humidity;BMP_temperature;BMP_pressure;BME280_temperature;BME280_humidity;BME280_pressure;Samples;Min_cycle;Max_cycle;Signal;HPM_P1;HPM_P2
2021/04/08 00:00:17;;;;;;;3.47;2.43;;;6.00;95.30;;;;;;4971091;28;20564;-72
2021/04/08 00:02:44;;;;;;;2.67;1.90;;;6.00;96.00;;;;;;4965970;28;20200;-72
2021/04/08 00:05:12;;;;;;;3.20;1.83;;;6.00;97.40;;;;;;4967712;28;20271;-72
2021/04/08 00:07:41;;;;;;;2.27;1.87;;;5.90;97.70;;;;;;4964874;28;20588;-71
2021/04/08 00:10:09;;;;;;;2.63;1.90;;;5.90;98.50;;;;;;4970086;28;20193;-72
2021/04/08 00:12:36;;;;;;;3.93;1.90;;;5.90;98.80;;;;;;4959246;28;20251;-73
2021/04/08 00:15:06;;;;;;;5.23;2.03;;;5.90;99.10;;;;;;4970555;28;20687;-72
2021/04/08 00:17:32;;;;;;;2.30;1.83;;;5.90;99.40;;;;;;4972670;28;20207;-72
2021/04/08 00:19:59;;;;;;;1.97;1.60;;;5.90;99.60;;;;;;4968594;28;20742;-71
2021/04/08 00:22:25;;;;;;;1.90;1.70;;;6.00;99.70;;;;;;4971495;28;20208;-72
2021/04/08 00:24:53;;;;;;;1.90;1.70;;;6.00;99.90;;;;;;4962256;28;20220;-72
2021/04/08 00:27:20;;;;;;;1.77;1.40;;;5.90;99.90;;;;;;4958762;28;20644;-72
2021/04/08 00:29:46;;;;;;;2.57;1.60;;;5.90;99.90;;;;;;4953964;28;20193;-72
2021/04/08 00:32:13;;;;;;;1.60;1.33;;;5.90;99.90;;;;;;4972071;28;20192;-71
2021/04/08 00:34:39;;;;;;;1.70;1.60;;;5.90;99.90;;;;;;4969818;28;20224;-72
2021/04/08 00:37:06;;;;;;;3.90;1.70;;;5.90;99.90;;;;;;4970334;28;20204;-71
2021/04/08 00:39:33;;;;;;;4.33;1.90;;;5.90;99.90;;;;;;4970510;28;20196;-71
2021/04/08 00:42:01;;;;;;;2.87;2.10;;;5.90;99.90;;;;;;4969305;28;20315;-71
2021/04/08 00:44:27;;;;;;;2.63;1.70;;;5.90;99.90;;;;;;4963221;28;20656;-71
2021/04/08 00:46:54;;;;;;;1.67;1.50;;;5.90;99.90;;;;;;4967455;28;20215;-71
2021/04/08 00:49:20;;;;;;;2.57;1.80;;;5.90;99.90;;;;;;4969378;28;20208;-71
2021/04/08 00:51:47;;;;;;;3.40;1.73;;;5.90;99.90;;;;;;4957433;28;20622;-71
2021/04/08 00:54:15;;;;;;;1.30;1.20;;;5.90;99.90;;;;;;4968102;28;20691;-71
2021/04/08 00:56:41;;;;;;;2.20;1.47;;;5.90;99.90;;;;;;4969274;28;20208;-71
2021/04/08 00:59:09;;;;;;;1.70;1.60;;;6.00;99.90;;;;;;4970787;28;20204;-71
2021/04/08 01:01:36;;;;;;;2.13;1.87;;;5.90;99.90;;;;;;4969245;28;20629;-71
2021/04/08 01:04:03;;;;;;;2.20;1.73;;;5.90;99.90;;;;;;4959965;28;20193;-71
2021/04/08 01:06:30;;;;;;;1.70;1.43;;;5.90;99.90;;;;;;4970260;28;20248;-71
2021/04/08 01:08:58;;;;;;;1.80;1.60;;;5.90;99.90;;;;;;4967983;28;20560;-71
2021/04/08 01:11:24;;;;;;;3.40;1.90;;;5.90;99.90;;;;;;4970457;28;20549;-71
2021/04/08 01:13:52;;;;;;;4.07;1.97;;;5.90;99.90;;;;;;4968885;28;20266;-71
2021/04/08 01:16:29;;;;;;;2.93;2.33;;;6.00;99.90;;;;;;4969340;28;20199;-71
2021/04/08 01:19:02;;;;;;;3.70;2.47;;;5.90;99.90;;;;;;4969546;28;20207;-70
2021/04/08 01:21:38;;;;;;;3.17;1.93;;;5.90;99.90;;;;;;4967266;28;20204;-71
2021/04/08 01:24:37;;;;;;;5.00;2.00;;;5.90;99.90;;;;;;4964922;28;20208;-71
2021/04/08 01:27:26;;;;;;;2.30;1.83;;;5.90;99.90;;;;;;4959582;28;20232;-71
2021/04/08 01:30:22;;;;;;;5.33;2.00;;;5.90;99.90;;;;;;4965718;28;20730;-71
2021/04/08 01:32:52;;;;;;;3.00;2.07;;;5.90;99.90;;;;;;4967435;28;20311;-71
2021/04/08 01:35:25;;;;;;;2.37;2.13;;;5.90;99.90;;;;;;4962385;28;20556;-71
2021/04/08 01:38:00;;;;;;;3.03;2.10;;;5.90;99.90;;;;;;4969759;28;20212;-71
2021/04/08 01:40:28;;;;;;;2.97;2.40;;;5.80;99.90;;;;;;4963271;28;20660;-71
2021/04/08 01:42:56;;;;;;;3.97;2.27;;;5.80;99.90;;;;;;4969068;28;20217;-70
2021/04/08 01:45:24;;;;;;;4.47;2.50;;;5.80;99.90;;;;;;4963806;28;20208;-71
2021/04/08 01:47:54;;;;;;;4.27;2.50;;;5.80;99.90;;;;;;4971164;28;20552;-71
2021/04/08 01:50:23;;;;;;;3.40;2.27;;;5.80;99.90;;;;;;4955257;28;20209;-71
2021/04/08 01:52:51;;;;;;;2.30;2.10;;;5.80;99.90;;;;;;4969752;28;20208;-71
2021/04/08 01:55:19;;;;;;;3.90;2.50;;;5.80;99.90;;;;;;4970119;28;20676;-71
2021/04/08 01:57:47;;;;;;;4.03;2.50;;;5.80;99.90;;;;;;4968770;28;20215;-71
2021/04/08 02:00:18;;;;;;;5.40;2.90;;;5.80;99.90;;;;;;4967350;28;20258;-71
2021/04/08 02:02:47;;;;;;;2.63;2.00;;;5.90;99.90;;;;;;4953602;28;20280;-71
2021/04/08 02:05:16;;;;;;;2.43;1.77;;;5.80;99.90;;;;;;4961057;28;20224;-71
2021/04/08 02:07:45;;;;;;;3.87;2.53;;;5.80;99.90;;;;;;4962464;28;20201;-71
2021/04/08 02:10:17;;;;;;;3.77;2.27;;;5.80;99.90;;;;;;4960739;28;20574;-71
2021/04/08 02:12:47;;;;;;;2.23;1.90;;;5.80;99.90;;;;;;4962684;28;20217;-70
2021/04/08 02:15:16;;;;;;;2.00;1.80;;;5.80;99.90;;;;;;4960284;28;20185;-71
2021/04/08 02:17:47;;;;;;;2.73;2.50;;;5.80;99.90;;;;;;4964207;28;20268;-71
2021/04/08 02:20:18;;;;;;;3.07;2.23;;;5.90;99.90;;;;;;4962478;28;20197;-70
2021/04/08 02:22:46;;;;;;;3.77;2.60;;;5.90;99.90;;;;;;4961621;28;20212;-71
2021/04/08 02:25:15;;;;;;;3.30;2.60;;;5.90;99.90;;;;;;4960989;28;20216;-71
2021/04/08 02:27:42;;;;;;;5.00;2.43;;;5.80;99.90;;;;;;4953702;28;20252;-71
2021/04/08 02:30:12;;;;;;;2.87;2.50;;;5.80;99.90;;;;;;4961994;28;20193;-71
2021/04/08 02:32:40;;;;;;;2.63;2.27;;;5.80;99.90;;;;;;4960295;28;20209;-71
2021/04/08 02:35:08;;;;;;;2.10;1.90;;;5.80;99.90;;;;;;4960804;28;20202;-71
2021/04/08 02:37:37;;;;;;;2.97;2.37;;;5.80;99.90;;;;;;4959828;28;20215;-71
2021/04/08 02:40:05;;;;;;;2.73;2.20;;;5.80;99.90;;;;;;4967004;28;20200;-71
2021/04/08 02:42:32;;;;;;;2.37;2.20;;;5.80;99.90;;;;;;4956143;28;20289;-71
2021/04/08 02:44:58;;;;;;;2.73;2.50;;;5.80;99.90;;;;;;4966910;28;20230;-71
2021/04/08 02:47:25;;;;;;;4.70;2.40;;;5.80;99.90;;;;;;4972622;28;20212;-71
2021/04/08 02:49:52;;;;;;;2.30;2.10;;;5.80;99.90;;;;;;4972769;28;20215;-71
2021/04/08 02:52:26;;;;;;;2.30;2.10;;;5.80;99.90;;;;;;4960824;28;20715;-71
2021/04/08 02:55:02;;;;;;;2.70;2.30;;;5.70;99.90;;;;;;4972186;28;20653;-71
2021/04/08 02:57:37;;;;;;;2.87;2.13;;;5.70;99.90;;;;;;4961789;28;20203;-70
2021/04/08 03:00:07;;;;;;;2.10;1.90;;;5.70;99.90;;;;;;4972455;28;20652;-70
2021/04/08 03:02:36;;;;;;;3.47;2.07;;;5.70;99.90;;;;;;4969966;28;20562;-70
2021/04/08 03:05:04;;;;;;;1.90;1.80;;;5.80;99.90;;;;;;4968816;28;20201;-71
2021/04/08 03:07:37;;;;;;;2.30;2.10;;;5.80;99.90;;;;;;4971682;28;20232;-71
2021/04/08 03:10:07;;;;;;;2.33;1.77;;;5.80;99.90;;;;;;4971787;28;20200;-71
2021/04/08 03:12:36;;;;;;;3.37;2.20;;;5.80;99.90;;;;;;4972213;28;20204;-71
2021/04/08 03:15:04;;;;;;;2.60;2.00;;;5.80;99.90;;;;;;4972164;28;20202;-71
2021/04/08 03:17:36;;;;;;;2.50;2.30;;;5.80;99.90;;;;;;4972230;28;20216;-71
2021/04/08 03:20:05;;;;;;;2.10;1.90;;;5.80;99.90;;;;;;4965951;28;20611;-71
2021/04/08 03:22:35;;;;;;;2.30;2.00;;;5.80;99.90;;;;;;4969314;28;20529;-71
2021/04/08 03:25:02;;;;;;;2.07;1.93;;;5.80;99.90;;;;;;4968991;28;20196;-71
2021/04/08 03:27:30;;;;;;;2.07;1.97;;;5.80;99.90;;;;;;4970562;28;20278;-71
2021/04/08 03:29:58;;;;;;;2.33;2.10;;;5.80;99.90;;;;;;4972700;28;20204;-71
2021/04/08 03:32:25;;;;;;;2.20;2.00;;;5.80;99.90;;;;;;4970116;28;20200;-72
2021/04/08 03:34:53;;;;;;;3.70;2.77;;;5.70;99.90;;;;;;4967350;28;20196;-71
2021/04/08 03:37:20;;;;;;;2.13;1.93;;;5.70;99.90;;;;;;4971912;28;20196;-72
2021/04/08 03:39:47;;;;;;;2.30;2.10;;;5.70;99.90;;;;;;4972287;28;20844;-71
2021/04/08 03:42:15;;;;;;;2.50;1.90;;;5.70;99.90;;;;;;4970094;28;20196;-71
2021/04/08 03:44:43;;;;;;;2.23;1.87;;;5.70;99.90;;;;;;4966797;28;20240;-71
2021/04/08 03:47:10;;;;;;;2.07;1.83;;;5.70;99.90;;;;;;4970996;28;20679;-71
2021/04/08 03:49:36;;;;;;;1.90;1.80;;;5.70;99.90;;;;;;4971946;28;20196;-71
2021/04/08 03:52:06;;;;;;;2.50;2.30;;;5.70;99.90;;;;;;4970354;28;21034;-71
2021/04/08 03:54:34;;;;;;;3.60;2.47;;;5.60;99.90;;;;;;4972401;28;20672;-72
2021/04/08 03:57:03;;;;;;;2.47;2.27;;;5.60;99.90;;;;;;4971064;28;20212;-71
2021/04/08 03:59:31;;;;;;;3.37;2.00;;;5.60;99.90;;;;;;4970874;28;20204;-71
2021/04/08 04:01:58;;;;;;;6.40;2.90;;;5.60;99.90;;;;;;4971070;28;20260;-71
2021/04/08 04:04:26;;;;;;;4.23;2.20;;;5.60;99.90;;;;;;4971654;28;20696;-71
2021/04/08 04:06:55;;;;;;;4.50;2.33;;;5.60;99.90;;;;;;4958140;28;20599;-72
2021/04/08 04:09:22;;;;;;;3.30;2.33;;;5.50;99.90;;;;;;4965139;28;20231;-71
2021/04/08 04:11:50;;;;;;;2.97;2.40;;;5.60;99.90;;;;;;4963069;28;20203;-72
2021/04/08 04:14:26;;;;;;;2.37;2.00;;;5.50;99.90;;;;;;4970214;28;20762;-71
2021/04/08 04:16:55;;;;;;;3.50;2.40;;;5.60;99.90;;;;;;4961324;28;20192;-71
2021/04/08 04:19:22;;;;;;;2.33;2.00;;;5.60;99.90;;;;;;4967365;28;20213;-72
2021/04/08 04:21:49;;;;;;;3.23;2.47;;;5.60;99.90;;;;;;4971520;28;20193;-70
2021/04/08 04:24:16;;;;;;;4.37;2.40;;;5.50;99.90;;;;;;4969507;28;20212;-70
2021/04/08 04:26:43;;;;;;;3.20;2.50;;;5.50;99.90;;;;;;4970336;28;20290;-72
2021/04/08 04:29:11;;;;;;;2.00;1.90;;;5.50;99.90;;;;;;4965105;28;20212;-72
2021/04/08 04:31:38;;;;;;;2.97;2.03;;;5.50;99.90;;;;;;4970163;28;20735;-70
2021/04/08 04:34:05;;;;;;;2.77;2.30;;;5.50;99.90;;;;;;4965611;28;20223;-72
2021/04/08 04:36:33;;;;;;;3.20;2.00;;;5.50;99.90;;;;;;4971793;28;20271;-70
2021/04/08 04:39:00;;;;;;;3.07;2.03;;;5.50;99.90;;;;;;4968256;28;20201;-72
2021/04/08 04:41:27;;;;;;;2.30;1.63;;;5.60;99.90;;;;;;4970978;28;20207;-71
2021/04/08 04:43:54;;;;;;;4.00;2.30;;;5.70;99.90;;;;;;4958102;28;20240;-70
2021/04/08 04:46:21;;;;;;;1.73;1.60;;;5.80;99.90;;;;;;4970698;28;20208;-70
2021/04/08 04:48:47;;;;;;;1.70;1.37;;;5.80;99.90;;;;;;4956346;28;20205;-70
2021/04/08 04:51:14;;;;;;;2.53;1.90;;;6.00;99.90;;;;;;4971861;28;20608;-70
2021/04/08 04:53:42;;;;;;;2.27;1.67;;;6.00;99.90;;;;;;4964157;28;20224;-71
2021/04/08 04:56:08;;;;;;;1.90;1.80;;;6.00;99.90;;;;;;4971870;28;20644;-71
2021/04/08 04:58:35;;;;;;;3.80;2.10;;;6.10;99.90;;;;;;4956508;28;20220;-71
2021/04/08 05:01:01;;;;;;;4.67;1.60;;;6.10;99.90;;;;;;4969595;28;20587;-71
2021/04/08 05:03:28;;;;;;;1.70;1.60;;;6.20;99.90;;;;;;4964802;28;20600;-71
2021/04/08 05:05:55;;;;;;;1.60;1.50;;;6.20;99.90;;;;;;4968288;28;20671;-71
2021/04/08 05:08:21;;;;;;;2.53;1.90;;;6.30;99.90;;;;;;4970782;28;20261;-71
2021/04/08 05:10:49;;;;;;;2.87;2.10;;;6.30;99.90;;;;;;4966980;28;20205;-70
2021/04/08 05:13:15;;;;;;;3.57;2.20;;;6.40;99.90;;;;;;4969251;28;20235;-71
2021/04/08 05:15:42;;;;;;;2.80;2.30;;;6.40;99.90;;;;;;4971272;28;20189;-71
2021/04/08 05:18:09;;;;;;;5.10;2.60;;;6.40;99.90;;;;;;4970083;28;20220;-71
2021/04/08 05:20:36;;;;;;;2.57;2.27;;;6.40;99.90;;;;;;4969280;28;20218;-71
2021/04/08 05:23:02;;;;;;;2.10;2.00;;;6.40;99.90;;;;;;4962926;28;20200;-71
2021/04/08 05:25:29;;;;;;;2.77;1.40;;;6.50;99.90;;;;;;4958229;28;20704;-71
2021/04/08 05:27:57;;;;;;;2.47;1.73;;;6.50;99.90;;;;;;4970315;28;20207;-71
2021/04/08 05:30:24;;;;;;;4.10;1.80;;;6.60;99.90;;;;;;4965352;28;20200;-71
2021/04/08 05:32:51;;;;;;;1.90;1.53;;;6.70;99.90;;;;;;4963694;28;20204;-71
2021/04/08 05:35:18;;;;;;;3.37;1.87;;;6.80;99.90;;;;;;4968035;28;20192;-71
2021/04/08 05:37:44;;;;;;;2.80;2.20;;;6.90;99.90;;;;;;4969469;28;20208;-71
2021/04/08 05:40:12;;;;;;;3.50;2.20;;;7.00;99.90;;;;;;4964938;28;20197;-71
2021/04/08 05:42:42;;;;;;;2.13;1.93;;;7.20;99.90;;;;;;4968694;28;20211;-71
2021/04/08 05:45:11;;;;;;;1.83;1.73;;;7.30;99.90;;;;;;4959031;28;20208;-71
2021/04/08 05:47:38;;;;;;;1.90;1.70;;;7.40;99.90;;;;;;4959846;28;20592;-71
2021/04/08 05:50:06;;;;;;;2.00;1.90;;;7.50;99.90;;;;;;4968654;28;20661;-71
2021/04/08 05:52:32;;;;;;;2.10;2.00;;;7.60;99.90;;;;;;4969759;28;20260;-70
2021/04/08 05:54:59;;;;;;;3.70;1.70;;;7.60;99.90;;;;;;4969901;28;20205;-70
2021/04/08 05:57:26;;;;;;;3.20;2.53;;;7.70;99.90;;;;;;4971928;28;20251;-71
2021/04/08 05:59:52;;;;;;;2.67;1.70;;;7.80;99.90;;;;;;4962906;28;20256;-70
2021/04/08 06:02:20;;;;;;;3.17;2.40;;;7.80;99.90;;;;;;4971638;28;20546;-70
2021/04/08 06:04:46;;;;;;;4.30;3.10;;;8.00;99.90;;;;;;4971869;28;20212;-70
2021/04/08 06:07:13;;;;;;;2.03;1.70;;;8.10;99.90;;;;;;4972886;28;20227;-71
2021/04/08 06:09:40;;;;;;;2.63;2.03;;;8.20;99.90;;;;;;4973285;28;20206;-70
2021/04/08 06:12:07;;;;;;;3.27;1.90;;;8.20;99.90;;;;;;4972429;28;20212;-71
2021/04/08 06:14:35;;;;;;;2.20;2.00;;;8.20;99.90;;;;;;4973046;28;20748;-71
2021/04/08 06:17:02;;;;;;;3.53;2.23;;;8.30;99.90;;;;;;4974411;28;20200;-70
2021/04/08 06:19:30;;;;;;;3.40;2.33;;;8.40;99.90;;;;;;4973402;28;20668;-71
2021/04/08 06:21:56;;;;;;;1.67;1.57;;;8.50;99.90;;;;;;4968570;28;20203;-70
2021/04/08 06:24:24;;;;;;;2.27;1.90;;;8.70;99.90;;;;;;4960463;28;20292;-71
2021/04/08 06:26:50;;;;;;;2.27;1.90;;;8.80;99.90;;;;;;4972032;28;20212;-70
2021/04/08 06:29:17;;;;;;;4.60;1.80;;;9.00;99.90;;;;;;4960402;28;20236;-70
2021/04/08 06:31:44;;;;;;;3.07;2.07;;;9.20;99.90;;;;;;4970738;28;20212;-70
2021/04/08 06:34:11;;;;;;;2.67;1.90;;;9.50;99.90;;;;;;4970211;28;20570;-70
2021/04/08 06:36:38;;;;;;;4.33;2.00;;;9.80;99.90;;;;;;4966752;28;20193;-70
2021/04/08 06:39:06;;;;;;;2.03;1.73;;;10.00;99.90;;;;;;4961694;28;20201;-70
2021/04/08 06:41:37;;;;;;;2.07;1.80;;;10.40;99.90;;;;;;4951220;28;20403;-70
2021/04/08 06:44:06;;;;;;;2.87;1.70;;;10.40;99.90;;;;;;4960585;28;20240;-69
2021/04/08 06:46:36;;;;;;;2.13;1.90;;;10.60;99.90;;;;;;4952999;28;20782;-69
2021/04/08 06:49:09;;;;;;;2.37;1.90;;;10.70;99.90;;;;;;4969108;28;20205;-70
2021/04/08 06:51:41;;;;;;;1.83;1.43;;;10.80;99.90;;;;;;4964976;28;20260;-72
2021/04/08 06:54:09;;;;;;;2.20;1.90;;;11.30;99.90;;;;;;4983651;28;20223;-71
2021/04/08 06:56:37;;;;;;;3.10;1.90;;;12.40;99.30;;;;;;4972034;28;20266;-72
2021/04/08 06:59:04;;;;;;;2.57;1.87;;;13.10;96.80;;;;;;4962903;28;20200;-73
2021/04/08 07:01:31;;;;;;;2.23;1.50;;;13.50;95.00;;;;;;4970883;28;20200;-73
2021/04/08 07:03:59;;;;;;;2.40;1.40;;;13.50;94.20;;;;;;4969795;28;20650;-73
2021/04/08 07:06:26;;;;;;;1.87;1.43;;;13.90;93.70;;;;;;4969603;28;20234;-72
2021/04/08 07:08:57;;;;;;;1.70;1.60;;;14.90;92.10;;;;;;4971203;28;20200;-72
2021/04/08 07:11:24;;;;;;;1.80;1.30;;;15.70;90.20;;;;;;4961975;28;20206;-72
2021/04/08 07:13:51;;;;;;;1.97;1.40;;;16.40;86.70;;;;;;4968979;28;20201;-73
2021/04/08 07:16:17;;;;;;;3.63;1.73;;;17.00;83.90;;;;;;4972487;28;20283;-71
2021/04/08 07:18:45;;;;;;;2.87;1.40;;;17.40;78.90;;;;;;4966650;28;20193;-72
2021/04/08 07:21:12;;;;;;;2.13;1.50;;;17.10;76.20;;;;;;4970424;28;20198;-72
2021/04/08 07:23:38;;;;;;;2.57;1.60;;;16.70;75.00;;;;;;4984002;28;20208;-72
2021/04/08 07:26:08;;;;;;;1.63;1.23;;;16.30;74.30;;;;;;4967086;28;21009;-72
2021/04/08 07:28:36;;;;;;;1.73;1.20;;;16.10;74.60;;;;;;4965062;28;20215;-72
2021/04/08 07:31:24;;;;;;;2.03;1.43;;;16.50;74.40;;;;;;4965412;28;20219;-72
2021/04/08 07:33:52;;;;;;;1.47;1.30;;;17.60;71.00;;;;;;4962576;28;20291;-72
2021/04/08 07:36:29;;;;;;;2.53;1.53;;;18.90;67.70;;;;;;4969360;28;20192;-73
2021/04/08 07:38:58;;;;;;;1.50;1.37;;;20.30;63.90;;;;;;4964972;28;20255;-72
2021/04/08 07:41:28;;;;;;;2.47;1.40;;;21.80;59.50;;;;;;4970199;28;20202;-72
2021/04/08 07:43:59;;;;;;;1.48;1.38;;;23.20;55.30;;;;;;4959040;28;20240;-73
2021/04/08 07:46:30;;;;;;;1.25;1.20;;;24.60;52.00;;;;;;4959356;28;20286;-72
2021/04/08 07:48:57;;;;;;;3.33;1.48;;;25.30;49.30;;;;;;4965358;28;20208;-76
2021/04/08 07:51:29;;;;;;;1.85;1.40;;;26.30;46.10;;;;;;4964909;28;20265;-73
2021/04/08 07:56:46;;;;;;;1.63;1.10;;;27.30;43.80;;;;;;5007366;23;20803;-65
2021/04/08 07:59:22;;;;;;;2.15;1.40;;;28.00;42.50;;;;;;4910554;29;20354;-65
2021/04/08 08:01:59;;;;;;;1.15;1.10;;;28.20;41.60;;;;;;4910789;29;20198;-65
2021/04/08 08:04:26;;;;;;;1.40;1.20;;;28.00;40.50;;;;;;4922484;29;20231;-65
2021/04/08 08:06:54;;;;;;;1.77;1.10;;;26.80;40.90;;;;;;4924671;29;20208;-65
2021/04/08 08:09:23;;;;;;;1.65;1.33;;;25.80;41.40;;;;;;4917553;29;20208;-65
2021/04/08 08:11:52;;;;;;;3.67;1.50;;;24.80;41.50;;;;;;4914055;29;20234;-67
2021/04/08 08:14:32;;;;;;;1.50;1.40;;;23.90;40.80;;;;;;4938682;28;20210;-66
2021/04/08 08:17:04;;;;;;;2.45;1.40;;;23.40;41.50;;;;;;4927187;29;20217;-64
2021/04/08 08:19:32;;;;;;;3.78;1.10;;;24.70;41.50;;;;;;4917702;29;20562;-65
2021/04/08 08:21:59;;;;;;;1.63;1.08;;;25.00;40.80;;;;;;4917918;29;20206;-65
2021/04/08 08:24:27;;;;;;;2.25;1.58;;;25.20;40.70;;;;;;4919085;28;20202;-65
2021/04/08 08:26:55;;;;;;;2.78;1.17;;;25.70;39.70;;;;;;4930931;28;20551;-65
2021/04/08 08:29:23;;;;;;;1.30;1.20;;;27.00;38.80;;;;;;4928634;29;20598;-66
2021/04/08 08:31:52;;;;;;;2.42;1.40;;;27.90;38.00;;;;;;4928079;29;20843;-65
2021/04/08 08:34:20;;;;;;;1.20;1.10;;;28.70;36.80;;;;;;4928000;29;20205;-65
2021/04/08 08:36:50;;;;;;;2.13;1.20;;;30.60;35.90;;;;;;4927432;29;20206;-65
2021/04/08 08:39:18;;;;;;;3.28;1.30;;;32.10;33.10;;;;;;4926310;28;20808;-66
2021/04/08 08:41:46;;;;;;;2.28;1.60;;;32.30;31.80;;;;;;4922397;28;20202;-65
2021/04/08 08:44:15;;;;;;;1.60;1.50;;;33.60;31.10;;;;;;4929292;29;20490;-65
2021/04/08 08:46:49;;;;;;;1.65;1.30;;;34.90;29.70;;;;;;4929085;29;20228;-65
2021/04/08 08:49:24;;;;;;;2.95;1.40;;;35.60;29.10;;;;;;4926725;29;20221;-66
2021/04/08 08:51:58;;;;;;;1.48;1.17;;;36.50;28.50;;;;;;4929300;29;20201;-66
2021/04/08 08:54:25;;;;;;;1.27;1.08;;;36.50;27.90;;;;;;4928478;29;20629;-66
2021/04/08 08:56:53;;;;;;;1.65;1.55;;;36.70;27.60;;;;;;4930934;29;20724;-66
2021/04/08 08:59:21;;;;;;;1.40;1.30;;;35.70;27.40;;;;;;4931192;28;20768;-65
2021/04/08 09:01:48;;;;;;;1.33;1.23;;;36.00;27.10;;;;;;4932430;28;20253;-65
2021/04/08 09:04:15;;;;;;;1.50;1.40;;;35.70;26.80;;;;;;4930757;28;20205;-65
2021/04/08 09:06:43;;;;;;;1.23;1.23;;;34.90;27.10;;;;;;4928245;29;20202;-66
2021/04/08 09:09:13;;;;;;;1.40;1.30;;;33.60;27.40;;;;;;4928828;29;20221;-66
2021/04/08 09:11:41;;;;;;;3.45;1.30;;;32.00;27.90;;;;;;4927901;29;20194;-65
2021/04/08 09:14:10;;;;;;;1.85;1.70;;;30.40;28.40;;;;;;4928505;29;20265;-65
2021/04/08 09:16:44;;;;;;;1.65;1.55;;;29.00;28.00;;;;;;4929100;29;20231;-65
2021/04/08 09:19:10;;;;;;;1.65;1.30;;;27.90;28.70;;;;;;4929527;29;20225;-65
2021/04/08 09:21:49;;;;;;;1.50;1.40;;;26.80;29.90;;;;;;4928315;29;20543;-65
2021/04/08 09:24:18;;;;;;;1.33;1.02;;;25.80;30.00;;;;;;4928598;29;20205;-65
2021/04/08 09:26:56;;;;;;;1.75;0.88;;;24.80;30.60;;;;;;4929151;28;20688;-65
2021/04/08 09:29:47;;;;;;;3.85;1.40;;;23.90;31.20;;;;;;4923890;29;20277;-65
2021/04/08 09:32:26;;;;;;;1.92;1.10;;;22.90;31.60;;;;;;4929139;29;20202;-65
2021/04/08 09:35:19;;;;;;;2.00;1.35;;;22.10;32.10;;;;;;4928584;29;20653;-65
2021/04/08 09:38:20;;;;;;;2.90;1.20;;;21.40;32.50;;;;;;4928046;29;20316;-65
2021/04/08 09:40:56;;;;;;;2.28;1.30;;;20.80;33.00;;;;;;4924171;29;20720;-65
2021/04/08 09:43:25;;;;;;;1.63;1.20;;;20.50;33.30;;;;;;4929046;28;20204;-65
2021/04/08 09:46:12;;;;;;;3.00;0.93;;;20.80;33.60;;;;;;4928362;29;20217;-65
2021/04/08 09:48:45;;;;;;;1.73;1.38;;;21.50;33.00;;;;;;4925145;29;20280;-65
2021/04/08 09:51:34;;;;;;;1.42;1.20;;;21.50;33.40;;;;;;4927601;29;20292;-65
2021/04/08 09:54:12;;;;;;;2.38;1.20;;;21.10;33.00;;;;;;4928287;29;20209;-65
2021/04/08 09:56:47;;;;;;;2.25;1.45;;;20.90;33.50;;;;;;4927085;29;20368;-65
2021/04/08 09:59:16;;;;;;;2.40;1.40;;;21.80;34.00;;;;;;4926266;29;20694;-65
2021/04/08 10:01:43;;;;;;;3.30;1.50;;;23.60;32.90;;;;;;4929603;28;20704;-66
2021/04/08 10:04:16;;;;;;;1.60;1.27;;;24.30;32.10;;;;;;4927219;29;20582;-66
2021/04/08 10:06:43;;;;;;;3.63;1.58;;;24.10;31.90;;;;;;4933897;29;20202;-66
2021/04/08 10:09:11;;;;;;;1.92;1.25;;;23.70;32.00;;;;;;4928996;29;20288;-65
2021/04/08 10:11:38;;;;;;;3.00;1.42;;;23.60;32.30;;;;;;4926776;29;20220;-66
2021/04/08 10:14:23;;;;;;;4.47;1.70;;;24.90;32.70;;;;;;4928868;29;20312;-67
2021/04/08 10:17:04;;;;;;;6.30;1.80;;;27.50;31.00;;;;;;4928659;29;20705;-67
2021/04/08 10:19:35;;;;;;;3.10;1.60;;;29.90;29.30;;;;;;4928658;29;20682;-67
2021/04/08 10:22:02;;;;;;;2.47;1.70;;;31.60;28.00;;;;;;4928537;29;20198;-67
2021/04/08 10:24:37;;;;;;;1.77;1.48;;;32.90;27.20;;;;;;4926100;28;20835;-65
2021/04/08 10:27:12;;;;;;;2.83;1.70;;;33.90;26.20;;;;;;4926708;29;20198;-71
2021/04/08 10:29:41;;;;;;;1.55;1.30;;;33.70;26.00;;;;;;4928994;29;20205;-66
2021/04/08 10:32:08;;;;;;;1.60;1.50;;;32.50;26.40;;;;;;4936392;28;20206;-67
2021/04/08 10:34:37;;;;;;;2.08;1.30;;;31.10;26.70;;;;;;4930926;29;20639;-66
2021/04/08 10:37:04;;;;;;;1.40;1.38;;;29.70;27.00;;;;;;4927160;29;20226;-66
2021/04/08 10:39:32;;;;;;;1.90;1.50;;;28.60;27.70;;;;;;4927556;29;20222;-66
2021/04/08 10:42:01;;;;;;;1.70;1.60;;;27.80;28.20;;;;;;4927973;29;20261;-67
2021/04/08 10:44:30;;;;;;;3.42;1.30;;;27.40;28.40;;;;;;4928460;29;20226;-66
2021/04/08 10:47:01;;;;;;;1.20;1.10;;;26.80;28.60;;;;;;4932762;29;20218;-66
2021/04/08 10:49:30;;;;;;;2.13;1.40;;;26.10;29.00;;;;;;4931357;29;20206;-67
2021/04/08 10:52:04;;;;;;;1.52;1.40;;;25.30;29.00;;;;;;4931621;29;20210;-67
2021/04/08 10:54:31;;;;;;;3.60;1.48;;;24.50;29.50;;;;;;4945315;28;20221;-67
2021/04/08 10:56:58;;;;;;;1.60;1.20;;;23.90;29.60;;;;;;4929910;29;20626;-67
2021/04/08 10:59:27;;;;;;;1.33;1.20;;;23.30;29.80;;;;;;4929806;29;20205;-67
2021/04/08 11:01:54;;;;;;;2.20;1.20;;;22.80;29.80;;;;;;4945518;28;20631;-67
2021/04/08 11:04:23;;;;;;;3.53;1.45;;;22.90;29.90;;;;;;4931256;29;20225;-66
2021/04/08 11:06:51;;;;;;;2.70;1.50;;;23.90;29.80;;;;;;4945138;28;20222;-66
2021/04/08 11:09:25;;;;;;;3.00;1.20;;;25.50;29.50;;;;;;4928204;29;20234;-67
2021/04/08 11:11:54;;;;;;;6.03;1.55;;;27.50;28.80;;;;;;4930378;29;20213;-67
2021/04/08 11:14:21;;;;;;;3.42;1.27;;;28.90;27.80;;;;;;4930491;29;20200;-67
2021/04/08 11:16:50;;;;;;;5.13;1.45;;;30.10;27.20;;;;;;4929160;29;20740;-67
2021/04/08 11:19:17;;;;;;;2.28;1.30;;;30.80;26.60;;;;;;4931610;29;20593;-66
2021/04/08 11:21:44;;;;;;;1.90;1.30;;;30.80;25.90;;;;;;4924633;29;20201;-66
2021/04/08 11:24:12;;;;;;;1.63;1.17;;;29.60;26.00;;;;;;4925671;29;20759;-66
2021/04/08 11:26:50;;;;;;;1.27;1.17;;;28.40;26.50;;;;;;4923117;29;20200;-66
2021/04/08 11:29:22;;;;;;;1.20;1.20;;;28.10;26.90;;;;;;4915805;29;20202;-66
2021/04/08 11:32:04;;;;;;;1.10;1.08;;;28.50;26.30;;;;;;4923187;29;20253;-66
2021/04/08 11:34:44;;;;;;;1.35;1.00;;;28.50;25.90;;;;;;4929370;29;20198;-66
2021/04/08 11:37:12;;;;;;;0.88;0.82;;;27.40;25.70;;;;;;4947205;28;20303;-66
2021/04/08 11:39:39;;;;;;;0.70;0.70;;;26.30;26.00;;;;;;4933307;28;20300;-67
2021/04/08 11:42:19;;;;;;;2.03;0.90;;;25.40;26.60;;;;;;4922949;29;20198;-66
2021/04/08 11:44:47;;;;;;;0.90;0.90;;;24.50;26.90;;;;;;4920910;29;20312;-66
2021/04/08 11:47:15;;;;;;;1.38;1.13;;;23.70;27.30;;;;;;4927691;29;20631;-67
2021/04/08 11:49:46;;;;;;;1.20;0.80;;;23.00;27.70;;;;;;4933591;29;20232;-67
2021/04/08 11:52:15;;;;;;;1.33;1.23;;;22.40;28.20;;;;;;4924527;29;20257;-67
2021/04/08 11:55:05;;;;;;;0.93;0.88;;;21.60;28.40;;;;;;4928603;29;20232;-67
2021/04/08 11:57:33;;;;;;;1.35;1.05;;;20.90;28.70;;;;;;4928937;29;20854;-66
2021/04/08 12:00:05;;;;;;;0.93;0.90;;;20.30;28.80;;;;;;4926750;29;20198;-67
2021/04/08 12:02:35;;;;;;;2.53;0.85;;;19.70;29.00;;;;;;4930258;29;20232;-67
2021/04/08 12:05:07;;;;;;;1.10;1.00;;;19.40;29.30;;;;;;4930259;29;20213;-67
2021/04/08 12:07:41;;;;;;;2.35;0.88;;;19.20;29.70;;;;;;4930731;29;20202;-67
2021/04/08 12:10:23;;;;;;;0.70;0.70;;;19.10;30.00;;;;;;4929387;29;20229;-66
2021/04/08 12:12:55;;;;;;;0.70;0.70;;;19.20;30.80;;;;;;4930944;29;20206;-67
2021/04/08 12:15:32;;;;;;;0.60;0.60;;;19.20;30.10;;;;;;4929225;29;20546;-66
2021/04/08 12:17:59;;;;;;;0.77;0.65;;;19.20;30.10;;;;;;4925210;29;20222;-66
2021/04/08 12:20:27;;;;;;;3.95;1.08;;;19.30;30.10;;;;;;4944995;28;20202;-66
2021/04/08 12:22:54;;;;;;;2.05;1.00;;;19.20;30.30;;;;;;4927148;29;20216;-66
2021/04/08 12:25:23;;;;;;;2.22;0.95;;;19.00;30.50;;;;;;4927612;29;20202;-66
2021/04/08 12:27:58;;;;;;;1.15;0.90;;;18.80;30.70;;;;;;4930409;29;20194;-66
2021/04/08 12:30:24;;;;;;;1.63;1.10;;;18.70;31.20;;;;;;4928787;29;20202;-65
2021/04/08 12:32:52;;;;;;;2.10;1.00;;;18.40;31.50;;;;;;4921198;29;20209;-66
2021/04/08 12:35:19;;;;;;;3.53;0.95;;;18.10;31.50;;;;;;4928174;28;20208;-66
2021/04/08 12:37:45;;;;;;;1.57;0.80;;;17.40;32.10;;;;;;4922699;28;20313;-65
2021/04/08 12:40:12;;;;;;;0.73;0.73;;;16.70;33.70;;;;;;4920634;29;20251;-65
2021/04/08 12:42:43;;;;;;;0.80;0.70;;;15.80;36.00;;;;;;4925169;29;20198;-65
2021/04/08 12:45:12;;;;;;;2.10;1.10;;;15.10;36.80;;;;;;4919296;29;20206;-65
2021/04/08 12:47:39;;;;;;;2.10;0.90;;;14.60;37.80;;;;;;4933006;29;20381;-65
2021/04/08 12:50:06;;;;;;;1.93;0.40;;;14.20;38.20;;;;;;4925958;29;20233;-66
2021/04/08 12:52:33;;;;;;;0.47;0.47;;;13.90;39.20;;;;;;4918774;29;20204;-66
2021/04/08 12:55:00;;;;;;;9.43;2.13;;;13.90;39.90;;;;;;4927922;28;20564;-66
2021/04/08 12:57:27;;;;;;;42.50;7.60;;;13.90;40.20;;;;;;4926895;29;20232;-65
2021/04/08 12:59:54;;;;;;;14.97;2.97;;;13.80;40.20;;;;;;4929524;28;20609;-66
2021/04/08 13:02:21;;;;;;;4.80;1.20;;;13.80;40.40;;;;;;4924375;29;20267;-66
2021/04/08 13:04:48;;;;;;;1.03;0.60;;;13.80;40.20;;;;;;4927645;29;20704;-66
2021/04/08 13:07:14;;;;;;;1.23;0.83;;;13.70;39.70;;;;;;4926689;29;20505;-66